Sonoma, CA

12:04 AM PDT on October 02, 2014 (GMT -0700)
Sonoma Raceway | Change Station
CLOSE
Current Station
Personal Weather Station
Location: SONOMA, CA
Elevation: 79 ft
Nearby Weather Stations
Active Advisory: Heat Advisory

Elev 79 ft 38.17 °N, 122.47 °W | Updated 2 minutes ago

Clear
Clear
61.0 °F
Feels Like 61.0 °F
N
0.0
Wind Variable Wind from WSW
Gusts 0.0 mph

Today
High -- | Low -- °F
--% Chance of Precip.
Yesterday
High -- | Low -- °F
Precip. -- in
7:06 AM 6:51 PM
First Quarter, 55% visible
Pressure 29.88 in
Visibility 7.0 miles
Clouds Overcast 300 ft
Dew Point 43 °F
Humidity 51%
Rainfall -999.00 in
Snow Depth Not available.
UV 0 out of 12
Pollen 3.60 out of 12
Ozone Good
PM2.5 Good
Flu Activity Not available.
METAR KO69 010715Z AUTO 00000KT 7SM OVC003 12/10 A2988 RMK AO1

More Conditions Fewer Conditions

Pressure 29.88 in
Visibility 7.0 miles
Clouds Overcast 300 ft
Dew Point 43 °F
Humidity 51%
Rainfall -999.00 in
Snow Depth Not available.
UV 0 out of 12
Pollen 3.60 out of 12
Ozone Good
PM2.5 Good
Flu Activity Not available.
METAR KO69 010715Z AUTO 00000KT 7SM OVC003 12/10 A2988 RMK AO1

More Conditions Fewer Conditions

10-Day Weather Forecast

Almanac

Astronomy

Oct. 02, 2014 Rise Set
Actual Time 7:06 AM PDT 6:51 PM PDT
Civil Twilight 6:40 AM PDT 7:17 PM PDT
Nautical Twilight 6:09 AM PDT 7:47 PM PDT
Astronomical Twilight 5:38 AM PDT 8:18 PM PDT
Moon 2:57 PM PDT 12:34 AM PDT
Length of Visible Light 12h 37m
Length of Day
11h 44m
Tomorrow will be 2m 26s shorter.
First Quarter, 55% of the Moon is Illuminated
Today
First Quarter
Oct 8
Full
Oct 15
Last Quarter
Oct 23
New
Oct 30
First Quarter

Community

WunderPhotos

Upload Photos

1,758,198 photos uploaded!

WunderBlogs® & News

By Dr. Jeff Masters
Director of Meteorology, Weather Underground
By Kari Strenfel
Meteorologist, Weather Underground
By Christopher C. Burt
Weather Historian, Weather Underground
October 2, 2014
October 2, 2014
October 2, 2014

Nearby

Air Quality

  Air Quality AQ Index Pollutant
Yesterday Good
PM2.5
Yesterday Good
OZONE
Current Good
PM2.5
Current Good
OZONE
Wednesday Good
PM2.5
Thursday Moderate
OZONE
Friday Moderate
PM2.5
Saturday Moderate
PM2.5
Sunday Moderate
PM2.5
Monday Moderate
PM2.5

Snow Depth

Station Depth Elevation
Heavenly Valley 0 in 8850 ft
Independence Creek 0 in 6500 ft
CSS Lab 5 in 6900 ft
Fallen Leaf 0 in 6300 ft
Sonora Pass 0 in 8800 ft

Earthquake Activity

City Distance Mag. Time & Date
South Dos Palos, California 139 miles 3.0 11:17 AM PDT
2014-10-01
East Foothills, California 61 miles 2.6 3:34 PM PDT
2014-09-30
South Dos Palos, California 139 miles 2.7 3:08 PM PDT
2014-09-30
South Dos Palos, California 138 miles 2.5 9:18 PM PDT
2014-09-29
Minimum magnitude displayed is 2.5.

Coastal Water Temperatures

Place Temperature
San Francisco, CA 64.0 °F
Port Chicago, CA 70.0 °F

Nearby Weather Stations